Time;durP1;ratioP1;P1;durP2;ratioP2;P2;SDS_P1;SDS_P2;PMS_P1;PMS_P2;Temp;Humidity;BMP_temperature;BMP_pressure;BME280_temperature;BME280_humidity;BME280_pressure;Samples;Min_cycle;Max_cycle;Signal;HPM_P1;HPM_P2
2022/08/31 00:05:08;;;;;;;6.63;3.67;;;;;;;;;;5019756;28;20556;-79
2022/08/31 00:07:34;;;;;;;6.28;3.83;;;;;;;;;;5019332;28;20085;-79
2022/08/31 00:10:02;;;;;;;7.00;3.65;;;;;;;;;;5020704;28;20030;-79
2022/08/31 00:12:29;;;;;;;6.88;3.55;;;;;;;;;;5020443;28;20036;-79
2022/08/31 00:14:55;;;;;;;5.38;3.63;;;;;;;;;;5002904;28;20022;-79
2022/08/31 00:17:21;;;;;;;5.53;3.60;;;;;;;;;;5000278;28;20124;-79
2022/08/31 00:19:47;;;;;;;5.90;3.50;;;;;;;;;;5013658;28;20026;-79
2022/08/31 00:22:13;;;;;;;5.80;3.50;;;;;;;;;;5020848;28;20108;-79
2022/08/31 00:24:39;;;;;;;7.13;3.70;;;;;;;;;;5019261;28;20022;-79
2022/08/31 00:27:05;;;;;;;6.25;4.03;;;;;;;;;;5006145;28;20076;-79
2022/08/31 00:29:31;;;;;;;6.10;3.70;;;;;;;;;;5000239;28;20023;-79
2022/08/31 00:31:57;;;;;;;7.63;3.83;;;;;;;;;;5013535;28;20490;-79
2022/08/31 00:34:25;;;;;;;6.78;4.22;;;;;;;;;;5020999;28;20030;-78
2022/08/31 00:36:52;;;;;;;5.50;3.83;;;;;;;;;;5022536;28;20017;-79
2022/08/31 00:39:18;;;;;;;5.78;3.75;;;;;;;;;;5022462;28;20033;-79
2022/08/31 00:41:46;;;;;;;5.68;3.58;;;;;;;;;;5009524;28;20026;-78
2022/08/31 00:44:12;;;;;;;6.28;4.05;;;;;;;;;;5009622;28;20088;-79
2022/08/31 00:46:40;;;;;;;5.90;4.32;;;;;;;;;;5003117;28;20038;-78
2022/08/31 00:49:09;;;;;;;7.05;4.70;;;;;;;;;;5002574;28;20399;-78
2022/08/31 00:51:47;;;;;;;6.22;4.07;;;;;;;;;;5002658;28;20025;-78
2022/08/31 00:54:14;;;;;;;5.95;4.22;;;;;;;;;;5018156;28;20054;-78
2022/08/31 00:56:43;;;;;;;6.65;4.35;;;;;;;;;;5021489;28;20053;-78
2022/08/31 00:59:10;;;;;;;6.82;4.80;;;;;;;;;;5020889;28;20050;-78
2022/08/31 01:01:36;;;;;;;7.20;4.82;;;;;;;;;;5021860;28;20069;-78
2022/08/31 01:04:02;;;;;;;9.43;4.90;;;;;;;;;;5021172;28;20037;-79
2022/08/31 01:06:28;;;;;;;6.65;4.53;;;;;;;;;;5025511;28;20033;-78
2022/08/31 01:08:55;;;;;;;7.80;5.32;;;;;;;;;;5019210;28;20080;-79
2022/08/31 01:11:21;;;;;;;6.40;4.53;;;;;;;;;;5008138;28;20509;-79
2022/08/31 01:13:48;;;;;;;6.93;5.10;;;;;;;;;;4981700;28;20045;-79
2022/08/31 01:16:17;;;;;;;7.18;4.85;;;;;;;;;;5016753;28;20117;-79
2022/08/31 01:18:44;;;;;;;7.35;3.85;;;;;;;;;;5019309;28;20093;-79
2022/08/31 01:21:19;;;;;;;7.88;4.70;;;;;;;;;;5014295;28;20030;-79
2022/08/31 01:23:45;;;;;;;7.68;4.85;;;;;;;;;;5015433;28;20029;-79
2022/08/31 01:26:14;;;;;;;8.68;5.32;;;;;;;;;;5019110;28;20029;-79
2022/08/31 01:28:40;;;;;;;7.30;5.15;;;;;;;;;;5018204;28;20410;-79
2022/08/31 01:31:06;;;;;;;7.18;4.65;;;;;;;;;;5018462;28;20026;-79
2022/08/31 01:33:33;;;;;;;6.72;4.95;;;;;;;;;;5017635;28;20257;-79
2022/08/31 01:35:59;;;;;;;6.97;4.53;;;;;;;;;;5018853;28;20061;-80
2022/08/31 01:38:25;;;;;;;7.15;4.30;;;;;;;;;;5017312;28;20034;-80
2022/08/31 01:40:53;;;;;;;8.02;4.70;;;;;;;;;;5018427;28;20030;-79
2022/08/31 01:43:20;;;;;;;9.20;5.22;;;;;;;;;;5018791;28;20029;-79
2022/08/31 01:45:46;;;;;;;8.38;5.68;;;;;;;;;;5018424;28;20371;-79
2022/08/31 01:48:12;;;;;;;7.72;4.95;;;;;;;;;;5017836;28;20049;-79
2022/08/31 01:50:38;;;;;;;7.57;5.20;;;;;;;;;;5018433;28;20025;-79
2022/08/31 01:53:04;;;;;;;7.13;5.13;;;;;;;;;;5017342;28;20049;-79
2022/08/31 01:55:30;;;;;;;7.35;4.72;;;;;;;;;;5018095;28;20097;-79
2022/08/31 01:58:00;;;;;;;7.95;5.50;;;;;;;;;;5017007;28;20022;-79
2022/08/31 02:00:27;;;;;;;7.85;5.03;;;;;;;;;;5016455;28;20113;-79
2022/08/31 02:02:53;;;;;;;7.65;5.47;;;;;;;;;;5018717;28;20029;-79
2022/08/31 02:05:19;;;;;;;7.18;5.10;;;;;;;;;;5017223;28;20034;-79
2022/08/31 02:07:46;;;;;;;10.32;5.30;;;;;;;;;;5017707;28;20437;-79
2022/08/31 02:10:12;;;;;;;8.05;4.93;;;;;;;;;;5017140;28;20053;-79
2022/08/31 02:12:38;;;;;;;7.93;4.70;;;;;;;;;;5017796;28;20076;-79
2022/08/31 02:15:04;;;;;;;7.22;4.97;;;;;;;;;;5016904;28;20018;-79
2022/08/31 02:17:30;;;;;;;6.78;5.13;;;;;;;;;;5017359;28;20552;-80
2022/08/31 02:19:57;;;;;;;7.15;4.82;;;;;;;;;;5017671;28;20026;-80
2022/08/31 02:22:23;;;;;;;8.65;5.53;;;;;;;;;;5017259;28;20097;-80
2022/08/31 02:24:49;;;;;;;7.85;4.88;;;;;;;;;;5019018;28;20042;-79
2022/08/31 02:27:15;;;;;;;7.93;5.88;;;;;;;;;;5018722;28;20052;-79
2022/08/31 02:29:41;;;;;;;7.43;5.80;;;;;;;;;;5018474;28;20108;-80
2022/08/31 02:32:07;;;;;;;7.57;4.63;;;;;;;;;;5011100;28;20112;-79
2022/08/31 02:34:33;;;;;;;9.13;6.03;;;;;;;;;;5017334;28;20123;-79
2022/08/31 02:36:59;;;;;;;6.53;4.45;;;;;;;;;;5016670;28;20034;-80
2022/08/31 02:39:25;;;;;;;7.97;5.22;;;;;;;;;;5016317;28;20018;-79
2022/08/31 02:41:51;;;;;;;7.75;5.35;;;;;;;;;;5016305;28;20028;-80
2022/08/31 02:44:17;;;;;;;7.70;5.10;;;;;;;;;;5015259;28;20120;-79
2022/08/31 02:46:43;;;;;;;7.18;4.28;;;;;;;;;;5015392;28;20026;-79
2022/08/31 02:49:09;;;;;;;8.23;5.32;;;;;;;;;;5015908;28;20026;-79
2022/08/31 02:51:38;;;;;;;7.65;5.10;;;;;;;;;;5016319;28;20022;-80
2022/08/31 02:54:04;;;;;;;9.15;5.05;;;;;;;;;;4994492;28;20070;-79
2022/08/31 02:56:30;;;;;;;7.78;5.05;;;;;;;;;;4997334;28;20026;-79
2022/08/31 02:58:57;;;;;;;7.43;5.15;;;;;;;;;;4997440;28;20026;-78
2022/08/31 03:01:25;;;;;;;8.70;5.28;;;;;;;;;;4997077;28;20033;-80
2022/08/31 03:03:51;;;;;;;7.68;5.78;;;;;;;;;;4998159;28;20037;-80
2022/08/31 03:06:18;;;;;;;7.43;5.25;;;;;;;;;;5012213;28;20049;-79
2022/08/31 03:08:45;;;;;;;7.85;5.30;;;;;;;;;;5015168;28;20061;-80
2022/08/31 03:11:11;;;;;;;7.80;5.38;;;;;;;;;;4985160;28;20026;-79
2022/08/31 03:13:37;;;;;;;7.55;5.80;;;;;;;;;;5007705;28;20023;-80
2022/08/31 03:16:04;;;;;;;8.70;5.55;;;;;;;;;;4996937;28;20034;-80
2022/08/31 03:18:30;;;;;;;7.63;5.18;;;;;;;;;;4996849;28;20513;-80
2022/08/31 03:20:56;;;;;;;16.50;7.50;;;;;;;;;;4995297;28;20045;-79
2022/08/31 03:23:22;;;;;;;8.35;5.47;;;;;;;;;;5016481;28;20430;-79
2022/08/31 03:25:49;;;;;;;9.50;6.15;;;;;;;;;;5014374;28;20029;-80
2022/08/31 03:28:15;;;;;;;10.60;5.88;;;;;;;;;;5015583;28;20109;-80
2022/08/31 03:30:41;;;;;;;7.85;5.35;;;;;;;;;;5015853;28;20022;-80
2022/08/31 03:33:08;;;;;;;8.35;5.38;;;;;;;;;;5016026;28;20028;-79
2022/08/31 03:35:34;;;;;;;8.30;5.88;;;;;;;;;;5016308;28;20076;-79
2022/08/31 03:38:01;;;;;;;28.10;10.27;;;;;;;;;;4997770;28;20401;-79
2022/08/31 03:40:27;;;;;;;8.48;5.55;;;;;;;;;;5015325;28;20021;-80
2022/08/31 03:42:55;;;;;;;8.57;5.93;;;;;;;;;;5015899;28;20029;-79
2022/08/31 03:45:21;;;;;;;8.52;6.25;;;;;;;;;;4987459;28;20026;-80
2022/08/31 03:47:47;;;;;;;10.38;6.22;;;;;;;;;;4996452;28;20138;-80
2022/08/31 03:50:14;;;;;;;8.57;5.40;;;;;;;;;;4996991;28;20076;-79
2022/08/31 03:52:40;;;;;;;9.20;5.90;;;;;;;;;;4996778;28;20041;-80
2022/08/31 03:55:07;;;;;;;8.25;5.78;;;;;;;;;;5003594;28;20034;-80
2022/08/31 03:57:34;;;;;;;7.55;5.15;;;;;;;;;;5016599;28;20109;-80
2022/08/31 04:00:00;;;;;;;13.40;7.03;;;;;;;;;;5014774;28;20022;-80
2022/08/31 04:02:26;;;;;;;7.50;5.22;;;;;;;;;;5016446;28;20076;-80
2022/08/31 04:04:52;;;;;;;7.50;5.40;;;;;;;;;;5016466;28;20026;-79
2022/08/31 04:07:18;;;;;;;7.80;6.07;;;;;;;;;;5014425;28;20374;-79
2022/08/31 04:09:45;;;;;;;8.32;5.60;;;;;;;;;;5015439;28;20498;-79
2022/08/31 04:12:11;;;;;;;9.32;5.82;;;;;;;;;;5016946;28;20060;-80
2022/08/31 04:14:37;;;;;;;8.88;6.40;;;;;;;;;;5016411;28;20026;-80
2022/08/31 04:17:03;;;;;;;8.90;6.40;;;;;;;;;;5016096;28;20053;-80
2022/08/31 04:19:29;;;;;;;8.60;6.32;;;;;;;;;;5012193;28;20022;-80
2022/08/31 04:21:56;;;;;;;8.98;5.63;;;;;;;;;;4997235;28;20113;-79
2022/08/31 04:24:22;;;;;;;9.80;5.80;;;;;;;;;;4984650;28;20306;-80
2022/08/31 04:26:50;;;;;;;7.60;5.53;;;;;;;;;;5016514;28;20026;-79
2022/08/31 04:29:16;;;;;;;8.15;5.60;;;;;;;;;;5015664;28;20014;-80
2022/08/31 04:31:42;;;;;;;8.65;5.72;;;;;;;;;;5015449;28;20045;-79
2022/08/31 04:34:08;;;;;;;8.20;5.80;;;;;;;;;;5013930;28;20030;-80
2022/08/31 04:36:35;;;;;;;8.65;5.47;;;;;;;;;;5005930;28;20014;-79
2022/08/31 04:39:02;;;;;;;8.57;5.35;;;;;;;;;;5006228;28;20054;-80
2022/08/31 04:41:29;;;;;;;9.38;6.05;;;;;;;;;;5014562;28;20026;-79
2022/08/31 04:43:56;;;;;;;7.97;5.40;;;;;;;;;;5018831;28;20033;-80
2022/08/31 04:46:23;;;;;;;8.00;5.18;;;;;;;;;;5019742;28;20433;-80
2022/08/31 04:48:49;;;;;;;8.38;5.60;;;;;;;;;;5019260;28;20401;-79
2022/08/31 04:51:19;;;;;;;10.75;6.47;;;;;;;;;;5019929;28;20068;-79
2022/08/31 04:53:45;;;;;;;8.13;5.70;;;;;;;;;;5019032;28;20025;-80
2022/08/31 04:56:13;;;;;;;7.72;5.70;;;;;;;;;;5006989;28;20022;-80
2022/08/31 04:58:43;;;;;;;8.52;5.57;;;;;;;;;;4999599;28;20026;-80
2022/08/31 05:01:10;;;;;;;9.25;5.65;;;;;;;;;;5016508;28;20034;-80
2022/08/31 05:03:36;;;;;;;10.23;5.97;;;;;;;;;;5019470;28;20025;-80
2022/08/31 05:06:02;;;;;;;7.75;5.50;;;;;;;;;;5018537;28;20087;-80
2022/08/31 05:08:29;;;;;;;8.55;5.80;;;;;;;;;;5019190;28;20018;-80
2022/08/31 05:10:55;;;;;;;10.10;6.50;;;;;;;;;;5018509;28;20494;-80
2022/08/31 05:13:21;;;;;;;9.35;5.63;;;;;;;;;;5020102;28;20025;-80
2022/08/31 05:15:48;;;;;;;14.07;6.65;;;;;;;;;;5017698;28;20074;-80
2022/08/31 05:18:14;;;;;;;9.57;5.32;;;;;;;;;;5020388;28;20050;-81
2022/08/31 05:20:40;;;;;;;9.85;5.85;;;;;;;;;;5020215;28;20036;-80
2022/08/31 05:23:07;;;;;;;9.55;5.80;;;;;;;;;;5001175;28;20036;-80
2022/08/31 05:25:33;;;;;;;11.80;5.65;;;;;;;;;;5020187;28;20030;-80
2022/08/31 05:27:59;;;;;;;8.15;6.00;;;;;;;;;;5019705;28;20030;-80
2022/08/31 05:30:25;;;;;;;9.25;6.07;;;;;;;;;;5019911;28;20148;-80
2022/08/31 05:32:51;;;;;;;9.15;5.90;;;;;;;;;;5003930;28;20026;-80
2022/08/31 05:35:18;;;;;;;9.27;5.93;;;;;;;;;;5000327;28;20441;-80
2022/08/31 05:37:44;;;;;;;7.97;5.40;;;;;;;;;;5007593;28;20093;-80
2022/08/31 05:40:10;;;;;;;10.15;5.70;;;;;;;;;;5020116;28;20025;-80
2022/08/31 05:42:36;;;;;;;9.40;5.47;;;;;;;;;;5018978;28;20108;-80
2022/08/31 05:45:02;;;;;;;9.60;5.90;;;;;;;;;;5019867;28;20034;-80
2022/08/31 05:47:28;;;;;;;8.75;5.90;;;;;;;;;;5019374;28;20054;-80
2022/08/31 05:49:54;;;;;;;10.18;5.60;;;;;;;;;;5017856;28;20045;-80
2022/08/31 05:52:20;;;;;;;14.98;7.03;;;;;;;;;;5019775;28;20022;-79
2022/08/31 05:54:47;;;;;;;10.20;5.40;;;;;;;;;;5017418;28;20029;-79
2022/08/31 05:57:13;;;;;;;15.20;6.10;;;;;;;;;;5017867;28;20026;-79
2022/08/31 05:59:39;;;;;;;8.93;5.57;;;;;;;;;;5016478;28;21389;-80
2022/08/31 06:02:07;;;;;;;8.32;5.30;;;;;;;;;;5017184;28;20029;-79
2022/08/31 06:04:33;;;;;;;8.48;5.47;;;;;;;;;;5012262;28;20030;-80
2022/08/31 06:06:59;;;;;;;8.75;5.55;;;;;;;;;;5007323;28;20030;-80
2022/08/31 06:09:25;;;;;;;9.45;5.30;;;;;;;;;;5017510;28;20072;-79
2022/08/31 06:11:52;;;;;;;7.82;5.20;;;;;;;;;;5017761;28;20018;-79
2022/08/31 06:14:21;;;;;;;8.68;5.15;;;;;;;;;;5018611;28;20067;-79
2022/08/31 06:16:47;;;;;;;9.05;6.00;;;;;;;;;;5016790;28;20041;-79
2022/08/31 06:19:13;;;;;;;6.75;4.93;;;;;;;;;;5018937;28;20045;-79
2022/08/31 06:21:41;;;;;;;8.63;4.90;;;;;;;;;;5019200;28;20029;-80
2022/08/31 06:24:09;;;;;;;7.40;5.50;;;;;;;;;;5000947;28;20061;-79
2022/08/31 06:26:35;;;;;;;9.05;5.28;;;;;;;;;;4995665;28;20050;-79
2022/08/31 06:29:03;;;;;;;8.52;5.28;;;;;;;;;;4998675;28;20025;-79
2022/08/31 06:31:32;;;;;;;8.10;5.10;;;;;;;;;;4998776;28;20045;-79
2022/08/31 06:34:00;;;;;;;9.52;5.45;;;;;;;;;;5018561;28;20022;-80
2022/08/31 06:36:27;;;;;;;9.07;5.13;;;;;;;;;;5014375;28;20105;-79
2022/08/31 06:38:54;;;;;;;9.15;5.28;;;;;;;;;;5018012;28;20057;-79
2022/08/31 06:41:22;;;;;;;9.90;5.18;;;;;;;;;;5017825;28;20030;-80
2022/08/31 06:43:48;;;;;;;7.90;5.30;;;;;;;;;;5018399;28;20150;-79
2022/08/31 06:46:16;;;;;;;8.35;5.53;;;;;;;;;;5018200;28;20500;-79
2022/08/31 06:48:42;;;;;;;7.15;4.68;;;;;;;;;;5018768;28;20029;-80
2022/08/31 06:51:09;;;;;;;8.88;5.15;;;;;;;;;;4999576;28;20054;-79
2022/08/31 06:53:36;;;;;;;9.63;5.80;;;;;;;;;;5018511;28;20022;-80
2022/08/31 06:56:06;;;;;;;8.50;5.57;;;;;;;;;;5018946;28;20529;-80
2022/08/31 06:58:32;;;;;;;8.50;5.10;;;;;;;;;;5018978;28;20033;-79
2022/08/31 07:00:58;;;;;;;7.80;4.88;;;;;;;;;;5017916;28;20137;-80
2022/08/31 07:03:31;;;;;;;7.68;4.93;;;;;;;;;;5016995;28;20037;-78
2022/08/31 07:05:58;;;;;;;7.38;5.10;;;;;;;;;;5017500;28;20030;-78
2022/08/31 07:08:24;;;;;;;7.68;5.15;;;;;;;;;;5017854;28;20025;-79
2022/08/31 07:10:50;;;;;;;8.43;5.47;;;;;;;;;;5016963;28;20072;-79
2022/08/31 07:13:16;;;;;;;8.77;5.28;;;;;;;;;;5018240;28;20021;-80
2022/08/31 07:15:42;;;;;;;9.20;5.10;;;;;;;;;;5016059;28;20033;-80
2022/08/31 07:18:08;;;;;;;6.75;4.95;;;;;;;;;;4999819;28;20458;-79
2022/08/31 07:20:34;;;;;;;8.75;5.22;;;;;;;;;;5016328;28;20033;-79
2022/08/31 07:23:00;;;;;;;8.18;5.00;;;;;;;;;;5018375;28;20029;-79
2022/08/31 07:25:26;;;;;;;8.27;5.50;;;;;;;;;;5000461;28;20075;-80
2022/08/31 07:27:54;;;;;;;7.80;5.47;;;;;;;;;;5018303;28;20295;-79
2022/08/31 07:30:24;;;;;;;7.60;4.88;;;;;;;;;;5017810;28;20168;-79
2022/08/31 07:32:50;;;;;;;7.05;5.07;;;;;;;;;;5017450;28;20044;-79
2022/08/31 07:35:17;;;;;;;8.45;4.80;;;;;;;;;;4997693;28;20498;-80
2022/08/31 07:43:14;;;;;;;7.63;5.50;;;;;;;;;;4998386;28;20037;-80
2022/08/31 07:45:41;;;;;;;7.63;5.13;;;;;;;;;;4997250;28;20032;-80
2022/08/31 07:48:07;;;;;;;9.77;5.05;;;;;;;;;;5017149;28;20101;-80
2022/08/31 07:50:33;;;;;;;8.10;5.30;;;;;;;;;;5000363;28;20022;-80
2022/08/31 07:52:59;;;;;;;7.38;4.60;;;;;;;;;;4998876;28;20112;-80
2022/08/31 07:55:30;;;;;;;6.55;4.65;;;;;;;;;;5018102;28;20026;-79
2022/08/31 07:57:57;;;;;;;9.10;5.03;;;;;;;;;;5017839;28;20394;-79
2022/08/31 08:00:28;;;;;;;6.90;4.85;;;;;;;;;;4999030;28;20322;-79
2022/08/31 08:02:54;;;;;;;7.35;4.93;;;;;;;;;;5017473;28;20034;-79
2022/08/31 08:05:22;;;;;;;6.57;4.90;;;;;;;;;;5005602;28;20052;-79
2022/08/31 08:07:49;;;;;;;7.68;4.88;;;;;;;;;;4997846;28;20031;-79
2022/08/31 08:10:16;;;;;;;8.32;5.03;;;;;;;;;;5012905;28;20403;-78
2022/08/31 08:12:47;;;;;;;7.57;4.95;;;;;;;;;;5017494;28;20022;-79
2022/08/31 08:15:13;;;;;;;7.55;4.85;;;;;;;;;;5021076;28;20313;-80
2022/08/31 08:17:40;;;;;;;7.70;5.53;;;;;;;;;;5017902;28;20046;-79
2022/08/31 08:20:06;;;;;;;8.30;5.25;;;;;;;;;;5020356;28;20085;-80
2022/08/31 08:22:32;;;;;;;7.43;5.32;;;;;;;;;;5021150;28;20060;-79
2022/08/31 08:25:03;;;;;;;7.53;4.88;;;;;;;;;;5022132;28;20037;-80
2022/08/31 08:27:29;;;;;;;7.43;5.20;;;;;;;;;;5021476;28;20022;-79
2022/08/31 08:29:55;;;;;;;7.55;5.05;;;;;;;;;;5020191;28;20026;-79
2022/08/31 08:32:22;;;;;;;6.60;5.32;;;;;;;;;;5019597;28;20116;-79
2022/08/31 08:34:48;;;;;;;7.10;4.88;;;;;;;;;;5021112;28;20072;-78
2022/08/31 08:37:14;;;;;;;8.23;4.63;;;;;;;;;;5020627;28;20030;-79
2022/08/31 08:39:41;;;;;;;6.85;4.93;;;;;;;;;;5020030;28;20044;-79
2022/08/31 08:42:08;;;;;;;8.55;5.10;;;;;;;;;;5019991;28;20049;-78
2022/08/31 08:44:35;;;;;;;7.95;5.47;;;;;;;;;;5002228;28;20038;-79
2022/08/31 08:47:06;;;;;;;7.47;5.00;;;;;;;;;;5000501;28;20073;-78
2022/08/31 08:49:49;;;;;;;7.65;5.18;;;;;;;;;;5010301;28;20034;-79
2022/08/31 08:52:35;;;;;;;6.47;4.38;;;;;;;;;;5001244;28;20331;-78
2022/08/31 08:55:03;;;;;;;6.30;4.57;;;;;;;;;;5000948;28;20027;-79
2022/08/31 08:57:31;;;;;;;7.35;4.70;;;;;;;;;;5000819;28;20031;-79
2022/08/31 08:59:59;;;;;;;7.60;4.78;;;;;;;;;;5018003;28;20033;-79
2022/08/31 09:02:44;;;;;;;7.85;5.25;;;;;;;;;;5019477;28;20022;-78
2022/08/31 09:05:33;;;;;;;8.43;5.00;;;;;;;;;;4990270;28;20097;-79
2022/08/31 09:08:18;;;;;;;8.35;5.18;;;;;;;;;;5003088;28;20018;-78
2022/08/31 09:10:50;;;;;;;7.05;4.80;;;;;;;;;;5019965;28;20460;-78
2022/08/31 09:13:48;;;;;;;6.35;5.00;;;;;;;;;;5001956;28;20022;-79
2022/08/31 09:16:37;;;;;;;7.55;4.93;;;;;;;;;;4965959;28;20037;-78
2022/08/31 09:19:06;;;;;;;6.82;4.95;;;;;;;;;;5014590;28;20026;-78
2022/08/31 09:21:35;;;;;;;8.10;4.97;;;;;;;;;;5023041;28;20083;-79
2022/08/31 09:24:12;;;;;;;7.60;5.35;;;;;;;;;;5023424;28;20033;-78
2022/08/31 09:26:57;;;;;;;6.80;5.25;;;;;;;;;;5005349;28;20314;-79
2022/08/31 09:29:27;;;;;;;8.30;5.07;;;;;;;;;;5019778;28;20564;-79
2022/08/31 09:32:05;;;;;;;5.90;4.80;;;;;;;;;;5021138;28;20029;-78
2022/08/31 09:34:36;;;;;;;6.90;5.18;;;;;;;;;;5022748;28;20029;-78
2022/08/31 09:37:10;;;;;;;7.57;4.57;;;;;;;;;;5020435;28;20100;-78
2022/08/31 09:39:36;;;;;;;6.95;4.78;;;;;;;;;;5022724;28;20105;-78
2022/08/31 09:42:12;;;;;;;7.75;5.35;;;;;;;;;;5021495;28;20073;-78
2022/08/31 09:44:41;;;;;;;8.73;5.15;;;;;;;;;;5008253;28;20498;-79
2022/08/31 09:47:18;;;;;;;7.57;4.88;;;;;;;;;;5022715;28;20541;-78
2022/08/31 09:49:53;;;;;;;7.45;4.85;;;;;;;;;;5021266;28;20048;-79
2022/08/31 09:55:12;;;;;;;6.93;4.75;;;;;;;;;;5021327;28;20037;-78
2022/08/31 09:55:16;;;;;;;7.47;4.78;;;;;;;;;;5021330;28;20036;-78
2022/08/31 09:57:51;;;;;;;6.60;4.88;;;;;;;;;;5006344;28;20029;-78
2022/08/31 10:00:25;;;;;;;6.38;4.60;;;;;;;;;;5007678;28;20049;-78
2022/08/31 10:02:56;;;;;;;7.22;4.95;;;;;;;;;;5002964;28;20232;-78
2022/08/31 10:05:42;;;;;;;7.30;5.07;;;;;;;;;;5010753;28;20021;-78
2022/08/31 10:08:26;;;;;;;7.97;4.57;;;;;;;;;;5022773;28;20462;-78
2022/08/31 10:10:57;;;;;;;5.82;4.38;;;;;;;;;;4988121;28;20049;-78
2022/08/31 10:13:41;;;;;;;7.47;4.60;;;;;;;;;;5002250;28;20105;-78
2022/08/31 10:16:24;;;;;;;7.55;4.95;;;;;;;;;;5003247;28;20333;-79
2022/08/31 10:18:51;;;;;;;;;;;;;;;;;;5022200;28;20498;-79
2022/08/31 10:21:25;;;;;;;7.35;4.07;;;;;;;;;;5019442;28;19967;-79
2022/08/31 10:23:55;;;;;;;5.50;3.95;;;;;;;;;;5019911;28;20038;-78
2022/08/31 10:26:30;;;;;;;6.32;3.92;;;;;;;;;;5020016;28;20022;-78
2022/08/31 10:28:59;;;;;;;5.57;3.50;;;;;;;;;;5019040;28;20032;-78
2022/08/31 10:31:32;;;;;;;6.18;3.60;;;;;;;;;;5017588;28;20053;-78
2022/08/31 10:37:11;;;;;;;7.60;3.83;;;;;;;;;;5004732;28;20146;-78
2022/08/31 10:39:48;;;;;;;7.43;3.72;;;;;;;;;;5013017;28;20089;-78
2022/08/31 10:42:18;;;;;;;5.55;3.55;;;;;;;;;;5019761;28;20041;-78
2022/08/31 10:44:51;;;;;;;5.10;3.25;;;;;;;;;;5020270;28;20497;-78
2022/08/31 10:47:18;;;;;;;6.05;3.50;;;;;;;;;;5019350;28;20026;-78
2022/08/31 10:49:44;;;;;;;7.03;3.90;;;;;;;;;;5020605;28;20036;-79
2022/08/31 10:52:17;;;;;;;5.28;3.50;;;;;;;;;;5017935;28;20022;-79
2022/08/31 10:54:53;;;;;;;7.75;4.05;;;;;;;;;;5018804;28;20068;-79
2022/08/31 10:57:38;;;;;;;6.38;4.03;;;;;;;;;;5018225;28;20026;-79
2022/08/31 11:00:40;;;;;;;5.97;3.50;;;;;;;;;;5018497;28;20025;-78
2022/08/31 11:03:03;;;;;;;4.55;3.03;;;;;;;;;;5017512;28;20030;-78
2022/08/31 11:05:30;;;;;;;5.38;3.30;;;;;;;;;;5005528;28;20034;-79
2022/08/31 11:08:19;;;;;;;4.88;3.20;;;;;;;;;;5011986;28;20076;-78
2022/08/31 11:10:50;;;;;;;4.63;3.20;;;;;;;;;;4955311;28;20060;-78
2022/08/31 11:13:34;;;;;;;5.03;3.28;;;;;;;;;;5018210;28;20014;-78
2022/08/31 11:16:00;;;;;;;6.25;3.28;;;;;;;;;;5016487;28;20025;-78
2022/08/31 11:18:34;;;;;;;5.68;3.10;;;;;;;;;;5017389;28;20050;-80
2022/08/31 11:21:22;;;;;;;5.25;2.92;;;;;;;;;;5017797;28;20397;-80
2022/08/31 11:24:06;;;;;;;7.47;3.35;;;;;;;;;;5017415;28;20616;-80
2022/08/31 11:26:42;;;;;;;4.70;2.80;;;;;;;;;;4991285;28;20510;-80
2022/08/31 11:29:18;;;;;;;6.43;3.30;;;;;;;;;;5001284;28;20018;-80
2022/08/31 11:31:45;;;;;;;6.55;3.55;;;;;;;;;;5002259;28;20045;-80
2022/08/31 11:34:23;;;;;;;5.85;2.97;;;;;;;;;;4980314;28;20442;-79
2022/08/31 11:36:51;;;;;;;5.10;3.20;;;;;;;;;;5009093;28;20060;-80
2022/08/31 11:39:25;;;;;;;5.40;3.63;;;;;;;;;;5017547;28;20032;-80
2022/08/31 11:41:52;;;;;;;5.80;3.70;;;;;;;;;;4984107;28;20034;-79
2022/08/31 11:44:35;;;;;;;5.75;3.47;;;;;;;;;;5018164;28;20038;-80
2022/08/31 11:47:19;;;;;;;7.30;3.35;;;;;;;;;;5016104;28;20552;-80
2022/08/31 11:49:46;;;;;;;6.13;3.20;;;;;;;;;;5017163;28;20088;-80
2022/08/31 11:52:28;;;;;;;6.93;3.50;;;;;;;;;;5017269;28;20022;-80
2022/08/31 11:55:12;;;;;;;6.28;3.80;;;;;;;;;;5016815;28;20061;-80
2022/08/31 11:57:58;;;;;;;5.93;3.40;;;;;;;;;;5016511;28;20105;-80
2022/08/31 12:00:40;;;;;;;5.38;3.25;;;;;;;;;;5016389;28;20029;-80
2022/08/31 12:03:08;;;;;;;5.43;3.10;;;;;;;;;;5015747;28;20034;-80
2022/08/31 12:05:53;;;;;;;5.40;3.35;;;;;;;;;;4987938;28;20776;-79
2022/08/31 12:08:20;;;;;;;5.35;3.30;;;;;;;;;;5006436;28;20090;-80
2022/08/31 12:11:02;;;;;;;6.10;4.10;;;;;;;;;;4998192;28;20030;-80
2022/08/31 12:13:33;;;;;;;5.50;4.28;;;;;;;;;;4997677;28;20046;-80
2022/08/31 12:16:08;;;;;;;6.10;4.40;;;;;;;;;;5005783;28;20160;-80
2022/08/31 12:18:48;;;;;;;5.85;3.88;;;;;;;;;;5016105;28;20054;-80
2022/08/31 12:24:20;;;;;;;7.13;3.33;;;;;;;;;;4998239;28;20474;-80
2022/08/31 12:27:04;;;;;;;6.50;3.35;;;;;;;;;;5012504;28;20044;-80
2022/08/31 12:29:30;;;;;;;6.90;3.65;;;;;;;;;;5009848;28;20038;-80
2022/08/31 12:32:03;;;;;;;6.25;3.40;;;;;;;;;;5018031;28;20080;-81
2022/08/31 12:34:29;;;;;;;5.57;3.15;;;;;;;;;;5018087;28;20031;-80
2022/08/31 12:36:55;;;;;;;5.90;3.60;;;;;;;;;;5017752;28;20033;-81
2022/08/31 12:39:27;;;;;;;6.43;3.30;;;;;;;;;;5018180;28;20569;-81
2022/08/31 12:41:55;;;;;;;5.20;2.90;;;;;;;;;;4998768;28;20042;-80
2022/08/31 12:44:32;;;;;;;5.35;3.33;;;;;;;;;;4997518;28;20038;-80
2022/08/31 12:46:58;;;;;;;5.97;3.40;;;;;;;;;;5013192;28;20041;-80
2022/08/31 12:49:37;;;;;;;5.20;3.25;;;;;;;;;;5017494;28;20106;-80
2022/08/31 12:52:25;;;;;;;5.43;3.50;;;;;;;;;;5015971;28;20754;-79
2022/08/31 12:55:01;;;;;;;5.90;3.90;;;;;;;;;;4996354;28;20059;-81
2022/08/31 12:57:29;;;;;;;7.05;3.45;;;;;;;;;;5016346;28;20054;-80
2022/08/31 13:00:08;;;;;;;8.98;3.67;;;;;;;;;;5018745;28;20037;-81
2022/08/31 13:02:39;;;;;;;5.25;3.80;;;;;;;;;;5020549;28;20125;-81
2022/08/31 13:05:17;;;;;;;5.75;4.07;;;;;;;;;;5001729;28;20022;-81
2022/08/31 13:07:43;;;;;;;6.32;3.75;;;;;;;;;;4992285;28;20050;-81
2022/08/31 13:10:11;;;;;;;5.97;3.63;;;;;;;;;;5019811;28;20026;-80
2022/08/31 13:12:37;;;;;;;5.80;3.70;;;;;;;;;;5019799;28;20503;-81
2022/08/31 13:15:07;;;;;;;6.32;3.90;;;;;;;;;;5019077;28;20018;-81
2022/08/31 13:17:37;;;;;;;5.53;3.60;;;;;;;;;;5000017;28;20058;-79
2022/08/31 13:20:04;;;;;;;6.13;3.85;;;;;;;;;;5008220;28;20033;-79
2022/08/31 13:22:38;;;;;;;5.47;3.65;;;;;;;;;;5000054;28;20064;-79
2022/08/31 13:25:34;;;;;;;5.85;3.60;;;;;;;;;;5000020;28;20026;-80
2022/08/31 13:28:17;;;;;;;5.75;3.35;;;;;;;;;;5000272;28;20093;-80
2022/08/31 13:30:53;;;;;;;5.18;3.40;;;;;;;;;;5022387;28;20486;-80
2022/08/31 13:33:22;;;;;;;6.05;3.50;;;;;;;;;;5027177;28;20017;-80
2022/08/31 13:35:49;;;;;;;5.40;3.20;;;;;;;;;;5025634;28;20096;-79
2022/08/31 13:38:16;;;;;;;6.03;3.35;;;;;;;;;;5027642;28;20025;-80
2022/08/31 13:40:49;;;;;;;5.43;3.28;;;;;;;;;;5022842;28;20026;-78
2022/08/31 13:43:18;;;;;;;5.40;3.00;;;;;;;;;;5021838;28;20108;-78
2022/08/31 13:45:56;;;;;;;5.65;2.95;;;;;;;;;;5026349;28;20053;-80
2022/08/31 13:48:39;;;;;;;5.95;3.10;;;;;;;;;;5027974;28;20018;-79
2022/08/31 13:51:13;;;;;;;5.43;2.83;;;;;;;;;;5027268;28;20077;-79
2022/08/31 13:53:44;;;;;;;5.90;3.05;;;;;;;;;;5009156;28;20060;-79
2022/08/31 13:59:16;;;;;;;;;;;;;;;;;;5014190;28;20511;-79
2022/08/31 14:01:46;;;;;;;5.90;3.08;;;;;;;;;;5027042;28;19905;-79
2022/08/31 14:07:32;;;;;;;4.47;2.45;;;;;;;;;;4924729;29;20411;-79
2022/08/31 14:10:01;;;;;;;6.53;2.33;;;;;;;;;;4926498;29;20024;-79
2022/08/31 14:12:34;;;;;;;4.72;2.75;;;;;;;;;;4926126;29;20075;-80
2022/08/31 14:15:20;;;;;;;4.78;2.78;;;;;;;;;;4926305;29;20107;-79
2022/08/31 14:18:00;;;;;;;6.57;2.40;;;;;;;;;;4918583;29;20060;-79
2022/08/31 14:20:32;;;;;;;4.07;2.58;;;;;;;;;;4925230;29;20036;-80
2022/08/31 14:23:17;;;;;;;4.93;2.25;;;;;;;;;;4924123;29;20036;-79
2022/08/31 14:25:43;;;;;;;6.30;2.60;;;;;;;;;;4925975;29;20209;-79
2022/08/31 14:28:09;;;;;;;4.85;2.40;;;;;;;;;;4924563;29;20060;-79
2022/08/31 14:30:35;;;;;;;4.07;2.10;;;;;;;;;;4923527;29;20028;-79
2022/08/31 14:33:01;;;;;;;4.20;2.13;;;;;;;;;;4924698;29;20521;-80
2022/08/31 14:35:27;;;;;;;4.32;1.90;;;;;;;;;;4906896;29;20477;-80
2022/08/31 14:37:53;;;;;;;4.20;2.22;;;;;;;;;;4943278;28;20129;-79
2022/08/31 14:40:19;;;;;;;4.93;2.33;;;;;;;;;;4999838;28;20089;-79
2022/08/31 14:42:46;;;;;;;5.15;2.00;;;;;;;;;;5017372;28;20021;-80
2022/08/31 14:45:19;;;;;;;4.60;2.35;;;;;;;;;;5017616;28;20019;-80
2022/08/31 14:47:46;;;;;;;4.40;2.10;;;;;;;;;;4999064;28;20088;-80
2022/08/31 14:50:18;;;;;;;4.00;2.10;;;;;;;;;;5007860;28;20170;-79
2022/08/31 14:52:53;;;;;;;4.50;2.13;;;;;;;;;;4999286;28;20153;-79
2022/08/31 14:55:20;;;;;;;4.38;2.00;;;;;;;;;;4998671;28;20027;-80
2022/08/31 14:57:54;;;;;;;4.43;1.98;;;;;;;;;;5000478;28;20026;-80
2022/08/31 15:00:22;;;;;;;3.80;1.90;;;;;;;;;;5018082;28;20014;-79
2022/08/31 15:02:48;;;;;;;3.90;2.00;;;;;;;;;;5017387;28;20072;-80
2022/08/31 15:05:16;;;;;;;4.28;1.75;;;;;;;;;;5010143;28;20030;-80
2022/08/31 15:07:43;;;;;;;4.68;1.98;;;;;;;;;;4997655;28;20046;-79
2022/08/31 15:10:13;;;;;;;4.07;1.85;;;;;;;;;;4997819;28;20547;-79
2022/08/31 15:12:39;;;;;;;3.80;1.85;;;;;;;;;;5015875;28;20030;-79
2022/08/31 15:15:06;;;;;;;3.55;1.63;;;;;;;;;;5017647;28;20057;-80
2022/08/31 15:17:34;;;;;;;4.38;2.15;;;;;;;;;;5017374;28;20119;-80
2022/08/31 15:20:02;;;;;;;4.43;2.03;;;;;;;;;;5000240;28;20058;-80